sensor_id;sensor_type;location;lat;lon;timestamp;temperature;humidity
9919;DHT22;4998;51.024;13.828;2023-04-04T00:00:13;6.60;54.60
9919;DHT22;4998;51.024;13.828;2023-04-04T00:02:40;6.60;54.70
9919;DHT22;4998;51.024;13.828;2023-04-04T00:05:08;6.60;54.70
9919;DHT22;4998;51.024;13.828;2023-04-04T00:07:35;6.60;54.80
9919;DHT22;4998;51.024;13.828;2023-04-04T00:10:04;6.60;54.60
9919;DHT22;4998;51.024;13.828;2023-04-04T00:12:31;6.60;54.80
9919;DHT22;4998;51.024;13.828;2023-04-04T00:14:58;6.60;54.80
9919;DHT22;4998;51.024;13.828;2023-04-04T00:17:25;6.60;54.90
9919;DHT22;4998;51.024;13.828;2023-04-04T00:19:52;6.60;54.90
9919;DHT22;4998;51.024;13.828;2023-04-04T00:22:21;6.60;55.00
9919;DHT22;4998;51.024;13.828;2023-04-04T00:24:49;6.60;55.00
9919;DHT22;4998;51.024;13.828;2023-04-04T00:27:17;6.60;55.00
9919;DHT22;4998;51.024;13.828;2023-04-04T00:29:44;6.60;55.00
9919;DHT22;4998;51.024;13.828;2023-04-04T00:32:11;6.60;55.00
9919;DHT22;4998;51.024;13.828;2023-04-04T00:34:38;6.60;55.00
9919;DHT22;4998;51.024;13.828;2023-04-04T00:37:06;6.60;55.10
9919;DHT22;4998;51.024;13.828;2023-04-04T00:39:36;6.60;55.10
9919;DHT22;4998;51.024;13.828;2023-04-04T00:42:04;6.60;55.30
9919;DHT22;4998;51.024;13.828;2023-04-04T00:44:32;6.60;55.30
9919;DHT22;4998;51.024;13.828;2023-04-04T00:47:01;6.60;55.40
9919;DHT22;4998;51.024;13.828;2023-04-04T00:49:28;6.60;56.10
9919;DHT22;4998;51.024;13.828;2023-04-04T00:51:55;6.60;55.50
9919;DHT22;4998;51.024;13.828;2023-04-04T00:54:22;6.60;55.50
9919;DHT22;4998;51.024;13.828;2023-04-04T00:56:49;6.70;55.60
9919;DHT22;4998;51.024;13.828;2023-04-04T00:59:20;6.70;55.60
9919;DHT22;4998;51.024;13.828;2023-04-04T01:01:49;6.70;55.60
9919;DHT22;4998;51.024;13.828;2023-04-04T01:04:16;6.70;55.60
9919;DHT22;4998;51.024;13.828;2023-04-04T01:06:43;6.70;55.70
9919;DHT22;4998;51.024;13.828;2023-04-04T01:09:10;6.60;55.60
9919;DHT22;4998;51.024;13.828;2023-04-04T01:11:37;6.60;55.60
9919;DHT22;4998;51.024;13.828;2023-04-04T01:14:05;6.60;55.60
9919;DHT22;4998;51.024;13.828;2023-04-04T01:16:32;6.60;55.70
9919;DHT22;4998;51.024;13.828;2023-04-04T01:19:03;6.60;55.80
9919;DHT22;4998;51.024;13.828;2023-04-04T01:21:32;6.60;55.80
9919;DHT22;4998;51.024;13.828;2023-04-04T01:24:01;6.60;55.80
9919;DHT22;4998;51.024;13.828;2023-04-04T01:26:31;6.60;55.80
9919;DHT22;4998;51.024;13.828;2023-04-04T01:28:58;6.50;55.80
9919;DHT22;4998;51.024;13.828;2023-04-04T01:31:28;6.50;55.90
9919;DHT22;4998;51.024;13.828;2023-04-04T01:34:04;6.40;56.00
9919;DHT22;4998;51.024;13.828;2023-04-04T01:36:38;6.50;56.10
9919;DHT22;4998;51.024;13.828;2023-04-04T01:39:14;6.50;56.20
9919;DHT22;4998;51.024;13.828;2023-04-04T01:41:47;6.50;56.10
9919;DHT22;4998;51.024;13.828;2023-04-04T01:44:16;6.50;56.10
9919;DHT22;4998;51.024;13.828;2023-04-04T01:46:43;6.40;56.00
9919;DHT22;4998;51.024;13.828;2023-04-04T01:49:10;6.40;56.00
9919;DHT22;4998;51.024;13.828;2023-04-04T01:51:37;6.40;56.10
9919;DHT22;4998;51.024;13.828;2023-04-04T01:54:05;6.40;56.30
9919;DHT22;4998;51.024;13.828;2023-04-04T01:56:32;6.40;56.40
9919;DHT22;4998;51.024;13.828;2023-04-04T01:59:01;6.30;56.40
9919;DHT22;4998;51.024;13.828;2023-04-04T02:01:28;6.30;56.40
9919;DHT22;4998;51.024;13.828;2023-04-04T02:03:55;6.30;56.40
9919;DHT22;4998;51.024;13.828;2023-04-04T02:06:22;6.30;56.40
9919;DHT22;4998;51.024;13.828;2023-04-04T02:08:49;6.30;56.60
9919;DHT22;4998;51.024;13.828;2023-04-04T02:11:16;6.30;56.60
9919;DHT22;4998;51.024;13.828;2023-04-04T02:13:47;6.30;56.70
9919;DHT22;4998;51.024;13.828;2023-04-04T02:16:15;6.30;56.80
9919;DHT22;4998;51.024;13.828;2023-04-04T02:18:42;6.30;56.80
9919;DHT22;4998;51.024;13.828;2023-04-04T02:21:09;6.30;56.90
9919;DHT22;4998;51.024;13.828;2023-04-04T02:23:36;6.30;56.90
9919;DHT22;4998;51.024;13.828;2023-04-04T02:26:04;6.30;56.90
9919;DHT22;4998;51.024;13.828;2023-04-04T02:28:31;6.30;56.90
9919;DHT22;4998;51.024;13.828;2023-04-04T02:30:59;6.30;56.90
9919;DHT22;4998;51.024;13.828;2023-04-04T02:33:29;6.40;57.00
9919;DHT22;4998;51.024;13.828;2023-04-04T02:35:56;6.30;56.90
9919;DHT22;4998;51.024;13.828;2023-04-04T02:38:24;6.30;56.90
9919;DHT22;4998;51.024;13.828;2023-04-04T02:40:51;6.30;57.00
9919;DHT22;4998;51.024;13.828;2023-04-04T02:43:18;6.30;57.00
9919;DHT22;4998;51.024;13.828;2023-04-04T02:45:47;6.30;57.00
9919;DHT22;4998;51.024;13.828;2023-04-04T02:48:14;6.30;57.00
9919;DHT22;4998;51.024;13.828;2023-04-04T02:50:42;6.30;57.00
9919;DHT22;4998;51.024;13.828;2023-04-04T02:53:11;6.30;57.00
9919;DHT22;4998;51.024;13.828;2023-04-04T02:55:38;6.30;57.00
9919;DHT22;4998;51.024;13.828;2023-04-04T02:58:06;6.20;57.00
9919;DHT22;4998;51.024;13.828;2023-04-04T03:00:33;6.20;56.80
9919;DHT22;4998;51.024;13.828;2023-04-04T03:03:01;6.20;57.00
9919;DHT22;4998;51.024;13.828;2023-04-04T03:05:29;6.20;57.00
9919;DHT22;4998;51.024;13.828;2023-04-04T03:07:58;6.20;57.00
9919;DHT22;4998;51.024;13.828;2023-04-04T03:10:26;6.10;57.00
9919;DHT22;4998;51.024;13.828;2023-04-04T03:12:55;6.10;57.00
9919;DHT22;4998;51.024;13.828;2023-04-04T03:15:22;6.00;57.00
9919;DHT22;4998;51.024;13.828;2023-04-04T03:17:49;6.00;57.00
9919;DHT22;4998;51.024;13.828;2023-04-04T03:20:16;6.00;57.00
9919;DHT22;4998;51.024;13.828;2023-04-04T03:22:43;5.90;57.00
9919;DHT22;4998;51.024;13.828;2023-04-04T03:25:11;5.90;57.10
9919;DHT22;4998;51.024;13.828;2023-04-04T03:27:38;5.90;57.20
9919;DHT22;4998;51.024;13.828;2023-04-04T03:30:07;5.90;57.30
9919;DHT22;4998;51.024;13.828;2023-04-04T03:32:35;5.80;57.30
9919;DHT22;4998;51.024;13.828;2023-04-04T03:35:04;5.80;57.40
9919;DHT22;4998;51.024;13.828;2023-04-04T03:37:32;5.80;57.70
9919;DHT22;4998;51.024;13.828;2023-04-04T03:40:00;5.80;57.60
9919;DHT22;4998;51.024;13.828;2023-04-04T03:42:32;5.70;57.40
9919;DHT22;4998;51.024;13.828;2023-04-04T03:44:59;5.70;57.70
9919;DHT22;4998;51.024;13.828;2023-04-04T03:47:27;5.70;57.70
9919;DHT22;4998;51.024;13.828;2023-04-04T03:49:54;5.70;57.70
9919;DHT22;4998;51.024;13.828;2023-04-04T03:52:21;5.70;57.70
9919;DHT22;4998;51.024;13.828;2023-04-04T03:54:48;5.60;57.70
9919;DHT22;4998;51.024;13.828;2023-04-04T03:57:15;5.50;57.50
9919;DHT22;4998;51.024;13.828;2023-04-04T03:59:44;5.60;58.00
9919;DHT22;4998;51.024;13.828;2023-04-04T04:02:11;5.60;58.10
9919;DHT22;4998;51.024;13.828;2023-04-04T04:04:38;5.60;58.20
9919;DHT22;4998;51.024;13.828;2023-04-04T04:07:05;5.50;58.10
9919;DHT22;4998;51.024;13.828;2023-04-04T04:09:32;5.50;58.30
9919;DHT22;4998;51.024;13.828;2023-04-04T04:11:59;5.50;58.30
9919;DHT22;4998;51.024;13.828;2023-04-04T04:14:26;5.50;58.40
9919;DHT22;4998;51.024;13.828;2023-04-04T04:16:55;5.50;58.50
9919;DHT22;4998;51.024;13.828;2023-04-04T04:19:22;5.50;58.70
9919;DHT22;4998;51.024;13.828;2023-04-04T04:21:49;5.50;58.80
9919;DHT22;4998;51.024;13.828;2023-04-04T04:24:16;5.50;58.70
9919;DHT22;4998;51.024;13.828;2023-04-04T04:26:43;5.40;58.70
9919;DHT22;4998;51.024;13.828;2023-04-04T04:29:10;5.40;58.90
9919;DHT22;4998;51.024;13.828;2023-04-04T04:31:37;5.40;58.90
9919;DHT22;4998;51.024;13.828;2023-04-04T04:34:06;5.40;59.60
9919;DHT22;4998;51.024;13.828;2023-04-04T04:36:34;5.40;59.10
9919;DHT22;4998;51.024;13.828;2023-04-04T04:39:01;5.30;59.00
9919;DHT22;4998;51.024;13.828;2023-04-04T04:41:28;5.40;59.10
9919;DHT22;4998;51.024;13.828;2023-04-04T04:43:55;5.30;59.10
9919;DHT22;4998;51.024;13.828;2023-04-04T04:46:22;5.30;59.10
9919;DHT22;4998;51.024;13.828;2023-04-04T04:48:49;5.30;59.30
9919;DHT22;4998;51.024;13.828;2023-04-04T04:51:17;5.30;59.40
9919;DHT22;4998;51.024;13.828;2023-04-04T04:53:44;5.30;59.50
9919;DHT22;4998;51.024;13.828;2023-04-04T04:56:12;5.30;59.40
9919;DHT22;4998;51.024;13.828;2023-04-04T04:58:38;5.30;59.40
9919;DHT22;4998;51.024;13.828;2023-04-04T05:01:05;5.30;59.50
9919;DHT22;4998;51.024;13.828;2023-04-04T05:03:32;5.30;59.50
9919;DHT22;4998;51.024;13.828;2023-04-04T05:05:59;5.30;59.70
9919;DHT22;4998;51.024;13.828;2023-04-04T05:08:28;5.30;59.80
9919;DHT22;4998;51.024;13.828;2023-04-04T05:10:55;5.30;59.80
9919;DHT22;4998;51.024;13.828;2023-04-04T05:13:22;5.30;59.80
9919;DHT22;4998;51.024;13.828;2023-04-04T05:15:49;5.30;60.00
9919;DHT22;4998;51.024;13.828;2023-04-04T05:18:17;5.30;60.10
9919;DHT22;4998;51.024;13.828;2023-04-04T05:20:49;5.40;60.30
9919;DHT22;4998;51.024;13.828;2023-04-04T05:23:17;5.40;60.60
9919;DHT22;4998;51.024;13.828;2023-04-04T05:25:47;5.50;60.40
9919;DHT22;4998;51.024;13.828;2023-04-04T05:28:15;5.50;60.40
9919;DHT22;4998;51.024;13.828;2023-04-04T05:30:42;5.60;60.40
9919;DHT22;4998;51.024;13.828;2023-04-04T05:33:10;5.60;60.30
9919;DHT22;4998;51.024;13.828;2023-04-04T05:35:37;5.70;60.30
9919;DHT22;4998;51.024;13.828;2023-04-04T05:38:05;5.80;60.30
9919;DHT22;4998;51.024;13.828;2023-04-04T05:40:32;5.80;60.20
9919;DHT22;4998;51.024;13.828;2023-04-04T05:43:01;5.90;60.10
9919;DHT22;4998;51.024;13.828;2023-04-04T05:45:29;6.00;60.00
9919;DHT22;4998;51.024;13.828;2023-04-04T05:47:56;6.00;59.80
9919;DHT22;4998;51.024;13.828;2023-04-04T05:50:23;6.10;59.90
9919;DHT22;4998;51.024;13.828;2023-04-04T05:52:53;6.20;60.00
9919;DHT22;4998;51.024;13.828;2023-04-04T05:55:21;6.20;59.90
9919;DHT22;4998;51.024;13.828;2023-04-04T05:57:48;6.30;59.90
9919;DHT22;4998;51.024;13.828;2023-04-04T06:00:18;6.40;59.60
9919;DHT22;4998;51.024;13.828;2023-04-04T06:02:45;6.50;59.70
9919;DHT22;4998;51.024;13.828;2023-04-04T06:05:13;6.50;59.50
9919;DHT22;4998;51.024;13.828;2023-04-04T06:07:40;6.60;59.40
9919;DHT22;4998;51.024;13.828;2023-04-04T06:10:08;6.70;59.40
9919;DHT22;4998;51.024;13.828;2023-04-04T06:12:35;6.80;59.40
9919;DHT22;4998;51.024;13.828;2023-04-04T06:15:02;6.80;59.40
9919;DHT22;4998;51.024;13.828;2023-04-04T06:17:30;6.90;59.20
9919;DHT22;4998;51.024;13.828;2023-04-04T06:19:58;7.00;59.10
9919;DHT22;4998;51.024;13.828;2023-04-04T06:22:25;6.90;58.90
9919;DHT22;4998;51.024;13.828;2023-04-04T06:24:52;7.20;58.90
9919;DHT22;4998;51.024;13.828;2023-04-04T06:27:19;7.30;58.80
9919;DHT22;4998;51.024;13.828;2023-04-04T06:29:46;7.30;58.60
9919;DHT22;4998;51.024;13.828;2023-04-04T06:32:14;7.40;58.30
9919;DHT22;4998;51.024;13.828;2023-04-04T06:34:42;7.40;58.20
9919;DHT22;4998;51.024;13.828;2023-04-04T06:37:09;7.40;58.00
9919;DHT22;4998;51.024;13.828;2023-04-04T06:39:37;7.50;58.10
9919;DHT22;4998;51.024;13.828;2023-04-04T06:42:05;7.50;58.00
9919;DHT22;4998;51.024;13.828;2023-04-04T06:44:32;7.50;57.80
9919;DHT22;4998;51.024;13.828;2023-04-04T06:46:59;7.60;58.50
9919;DHT22;4998;51.024;13.828;2023-04-04T06:49:26;7.60;57.50
9919;DHT22;4998;51.024;13.828;2023-04-04T06:51:54;7.60;57.60
9919;DHT22;4998;51.024;13.828;2023-04-04T06:54:24;7.70;57.30
9919;DHT22;4998;51.024;13.828;2023-04-04T06:56:51;7.70;57.00
9919;DHT22;4998;51.024;13.828;2023-04-04T06:59:18;7.70;56.80
9919;DHT22;4998;51.024;13.828;2023-04-04T07:01:45;7.70;56.70
9919;DHT22;4998;51.024;13.828;2023-04-04T07:04:12;7.70;56.70
9919;DHT22;4998;51.024;13.828;2023-04-04T07:06:39;7.70;56.60
9919;DHT22;4998;51.024;13.828;2023-04-04T07:09:08;7.80;56.30
9919;DHT22;4998;51.024;13.828;2023-04-04T07:11:35;7.70;55.80
9919;DHT22;4998;51.024;13.828;2023-04-04T07:14:13;7.70;55.60
9919;DHT22;4998;51.024;13.828;2023-04-04T07:16:40;7.70;55.40
9919;DHT22;4998;51.024;13.828;2023-04-04T07:19:07;7.60;55.40
9919;DHT22;4998;51.024;13.828;2023-04-04T07:21:34;7.60;55.40
9919;DHT22;4998;51.024;13.828;2023-04-04T07:24:02;7.50;55.20
9919;DHT22;4998;51.024;13.828;2023-04-04T07:26:30;7.60;55.20
9919;DHT22;4998;51.024;13.828;2023-04-04T07:29:00;7.60;55.20
9919;DHT22;4998;51.024;13.828;2023-04-04T07:31:27;7.60;55.40
9919;DHT22;4998;51.024;13.828;2023-04-04T07:33:54;7.60;55.40
9919;DHT22;4998;51.024;13.828;2023-04-04T07:36:21;7.60;55.20
9919;DHT22;4998;51.024;13.828;2023-04-04T07:38:48;7.60;55.20
9919;DHT22;4998;51.024;13.828;2023-04-04T07:41:15;7.60;55.10
9919;DHT22;4998;51.024;13.828;2023-04-04T07:43:44;7.60;55.10
9919;DHT22;4998;51.024;13.828;2023-04-04T07:46:11;7.70;55.00
9919;DHT22;4998;51.024;13.828;2023-04-04T07:48:39;7.70;54.90
9919;DHT22;4998;51.024;13.828;2023-04-04T07:51:06;7.80;54.90
9919;DHT22;4998;51.024;13.828;2023-04-04T07:53:33;7.80;54.70
9919;DHT22;4998;51.024;13.828;2023-04-04T07:56:00;7.80;54.50
9919;DHT22;4998;51.024;13.828;2023-04-04T07:58:31;7.90;54.00
9919;DHT22;4998;51.024;13.828;2023-04-04T08:00:59;7.90;53.60
9919;DHT22;4998;51.024;13.828;2023-04-04T08:03:26;7.90;53.40
9919;DHT22;4998;51.024;13.828;2023-04-04T08:05:53;7.90;53.10
9919;DHT22;4998;51.024;13.828;2023-04-04T08:08:20;7.90;52.60
9919;DHT22;4998;51.024;13.828;2023-04-04T08:10:48;7.80;52.50
9919;DHT22;4998;51.024;13.828;2023-04-04T08:13:15;7.80;52.60
9919;DHT22;4998;51.024;13.828;2023-04-04T08:15:42;7.80;52.50
9919;DHT22;4998;51.024;13.828;2023-04-04T08:18:11;7.80;52.40
9919;DHT22;4998;51.024;13.828;2023-04-04T08:20:38;7.80;52.10
9919;DHT22;4998;51.024;13.828;2023-04-04T08:23:05;7.80;52.10
9919;DHT22;4998;51.024;13.828;2023-04-04T08:25:32;7.80;51.80
9919;DHT22;4998;51.024;13.828;2023-04-04T08:28:00;7.80;52.00
9919;DHT22;4998;51.024;13.828;2023-04-04T08:30:29;7.80;51.90
9919;DHT22;4998;51.024;13.828;2023-04-04T08:32:57;7.80;51.70
9919;DHT22;4998;51.024;13.828;2023-04-04T08:35:25;7.80;51.60
9919;DHT22;4998;51.024;13.828;2023-04-04T08:37:52;7.90;51.60
9919;DHT22;4998;51.024;13.828;2023-04-04T08:40:19;7.90;51.70
9919;DHT22;4998;51.024;13.828;2023-04-04T08:42:47;7.90;51.30
9919;DHT22;4998;51.024;13.828;2023-04-04T08:45:17;7.90;51.10
9919;DHT22;4998;51.024;13.828;2023-04-04T08:47:45;8.00;51.10
9919;DHT22;4998;51.024;13.828;2023-04-04T08:50:15;8.00;51.00
9919;DHT22;4998;51.024;13.828;2023-04-04T08:52:44;8.00;51.00
9919;DHT22;4998;51.024;13.828;2023-04-04T08:55:12;8.00;50.90
9919;DHT22;4998;51.024;13.828;2023-04-04T08:57:40;8.00;50.50
9919;DHT22;4998;51.024;13.828;2023-04-04T09:00:08;8.00;50.70
9919;DHT22;4998;51.024;13.828;2023-04-04T09:02:41;8.00;50.20
9919;DHT22;4998;51.024;13.828;2023-04-04T09:05:10;8.10;50.10
9919;DHT22;4998;51.024;13.828;2023-04-04T09:07:38;8.10;50.10
9919;DHT22;4998;51.024;13.828;2023-04-04T09:10:09;8.10;50.00
9919;DHT22;4998;51.024;13.828;2023-04-04T09:12:38;8.10;49.50
9919;DHT22;4998;51.024;13.828;2023-04-04T09:15:08;8.20;49.80
9919;DHT22;4998;51.024;13.828;2023-04-04T09:17:35;8.20;49.60
9919;DHT22;4998;51.024;13.828;2023-04-04T09:20:08;8.20;49.60
9919;DHT22;4998;51.024;13.828;2023-04-04T09:22:51;8.20;49.50
9919;DHT22;4998;51.024;13.828;2023-04-04T09:25:21;8.30;49.10
9919;DHT22;4998;51.024;13.828;2023-04-04T09:27:48;8.30;49.00
9919;DHT22;4998;51.024;13.828;2023-04-04T09:30:18;8.30;48.90
9919;DHT22;4998;51.024;13.828;2023-04-04T09:32:46;8.30;49.00
9919;DHT22;4998;51.024;13.828;2023-04-04T09:35:13;8.30;49.10
9919;DHT22;4998;51.024;13.828;2023-04-04T09:37:41;8.30;48.80
9919;DHT22;4998;51.024;13.828;2023-04-04T09:40:09;8.30;48.60
9919;DHT22;4998;51.024;13.828;2023-04-04T09:42:38;8.30;48.50
9919;DHT22;4998;51.024;13.828;2023-04-04T09:45:06;8.30;48.50
9919;DHT22;4998;51.024;13.828;2023-04-04T09:47:39;8.30;48.40
9919;DHT22;4998;51.024;13.828;2023-04-04T09:50:07;8.30;48.10
9919;DHT22;4998;51.024;13.828;2023-04-04T09:52:35;8.30;48.20
9919;DHT22;4998;51.024;13.828;2023-04-04T09:55:03;8.30;47.80
9919;DHT22;4998;51.024;13.828;2023-04-04T09:57:32;8.30;47.80
9919;DHT22;4998;51.024;13.828;2023-04-04T10:00:03;8.30;47.70
9919;DHT22;4998;51.024;13.828;2023-04-04T10:02:32;8.30;47.40
9919;DHT22;4998;51.024;13.828;2023-04-04T10:05:00;8.30;47.30
9919;DHT22;4998;51.024;13.828;2023-04-04T10:07:30;8.40;47.30
9919;DHT22;4998;51.024;13.828;2023-04-04T10:10:00;8.30;47.20
9919;DHT22;4998;51.024;13.828;2023-04-04T10:12:29;8.30;47.20
9919;DHT22;4998;51.024;13.828;2023-04-04T10:14:58;8.40;47.20
9919;DHT22;4998;51.024;13.828;2023-04-04T10:17:29;8.30;46.80
9919;DHT22;4998;51.024;13.828;2023-04-04T10:19:59;8.30;46.50
9919;DHT22;4998;51.024;13.828;2023-04-04T10:22:27;8.30;46.40
9919;DHT22;4998;51.024;13.828;2023-04-04T10:24:54;8.30;46.40
9919;DHT22;4998;51.024;13.828;2023-04-04T10:27:23;8.30;46.40
9919;DHT22;4998;51.024;13.828;2023-04-04T10:29:50;8.30;46.40
9919;DHT22;4998;51.024;13.828;2023-04-04T10:32:22;8.30;46.50
9919;DHT22;4998;51.024;13.828;2023-04-04T10:34:58;8.40;46.60
9919;DHT22;4998;51.024;13.828;2023-04-04T10:37:27;8.40;46.60
9919;DHT22;4998;51.024;13.828;2023-04-04T10:40:03;8.50;46.90
9919;DHT22;4998;51.024;13.828;2023-04-04T10:42:34;8.60;46.60
9919;DHT22;4998;51.024;13.828;2023-04-04T10:45:07;8.60;46.20
9919;DHT22;4998;51.024;13.828;2023-04-04T10:47:34;8.70;46.20
9919;DHT22;4998;51.024;13.828;2023-04-04T10:50:05;8.60;46.20
9919;DHT22;4998;51.024;13.828;2023-04-04T10:52:34;8.70;46.00
9919;DHT22;4998;51.024;13.828;2023-04-04T10:55:04;8.70;45.80
9919;DHT22;4998;51.024;13.828;2023-04-04T10:57:33;8.70;45.50
9919;DHT22;4998;51.024;13.828;2023-04-04T11:00:04;8.70;45.60
9919;DHT22;4998;51.024;13.828;2023-04-04T11:02:43;8.70;45.50
9919;DHT22;4998;51.024;13.828;2023-04-04T11:05:17;8.70;45.50
9919;DHT22;4998;51.024;13.828;2023-04-04T11:07:45;8.70;45.20
9919;DHT22;4998;51.024;13.828;2023-04-04T11:10:13;8.70;45.00
9919;DHT22;4998;51.024;13.828;2023-04-04T11:12:44;8.80;44.70
9919;DHT22;4998;51.024;13.828;2023-04-04T11:15:13;8.80;44.60
9919;DHT22;4998;51.024;13.828;2023-04-04T11:17:55;8.80;44.80
9919;DHT22;4998;51.024;13.828;2023-04-04T11:20:29;8.80;44.70
9919;DHT22;4998;51.024;13.828;2023-04-04T11:23:06;8.90;44.20
9919;DHT22;4998;51.024;13.828;2023-04-04T11:25:38;8.90;44.30
9919;DHT22;4998;51.024;13.828;2023-04-04T11:31:22;9.00;44.30
9919;DHT22;4998;51.024;13.828;2023-04-04T11:34:07;9.00;43.90
9919;DHT22;4998;51.024;13.828;2023-04-04T11:36:51;9.10;44.40
9919;DHT22;4998;51.024;13.828;2023-04-04T11:39:24;9.10;44.70
9919;DHT22;4998;51.024;13.828;2023-04-04T11:41:53;9.20;44.20
9919;DHT22;4998;51.024;13.828;2023-04-04T11:44:23;9.10;43.70
9919;DHT22;4998;51.024;13.828;2023-04-04T11:46:54;9.20;43.70
9919;DHT22;4998;51.024;13.828;2023-04-04T11:49:25;9.20;43.50
9919;DHT22;4998;51.024;13.828;2023-04-04T11:51:55;9.10;43.60
9919;DHT22;4998;51.024;13.828;2023-04-04T11:54:23;9.10;43.70
9919;DHT22;4998;51.024;13.828;2023-04-04T11:56:50;9.10;43.40
9919;DHT22;4998;51.024;13.828;2023-04-04T11:59:18;9.10;43.60
9919;DHT22;4998;51.024;13.828;2023-04-04T12:01:46;9.20;43.70
9919;DHT22;4998;51.024;13.828;2023-04-04T12:04:16;9.20;43.50
9919;DHT22;4998;51.024;13.828;2023-04-04T12:06:46;9.20;43.50
9919;DHT22;4998;51.024;13.828;2023-04-04T12:09:19;9.20;43.40
9919;DHT22;4998;51.024;13.828;2023-04-04T12:11:46;9.30;43.30
9919;DHT22;4998;51.024;13.828;2023-04-04T12:14:17;9.30;43.40
9919;DHT22;4998;51.024;13.828;2023-04-04T12:16:48;9.30;43.20
9919;DHT22;4998;51.024;13.828;2023-04-04T12:19:15;9.40;43.40
9919;DHT22;4998;51.024;13.828;2023-04-04T12:21:43;9.40;43.50
9919;DHT22;4998;51.024;13.828;2023-04-04T12:24:10;9.50;43.60
9919;DHT22;4998;51.024;13.828;2023-04-04T12:26:41;9.50;43.60
9919;DHT22;4998;51.024;13.828;2023-04-04T12:29:09;9.60;43.10
9919;DHT22;4998;51.024;13.828;2023-04-04T12:31:38;9.60;43.10
9919;DHT22;4998;51.024;13.828;2023-04-04T12:34:13;9.60;42.80
9919;DHT22;4998;51.024;13.828;2023-04-04T12:36:41;9.60;42.80
9919;DHT22;4998;51.024;13.828;2023-04-04T12:39:09;9.60;42.70
9919;DHT22;4998;51.024;13.828;2023-04-04T12:41:49;9.60;42.30
9919;DHT22;4998;51.024;13.828;2023-04-04T12:44:25;9.50;41.60
9919;DHT22;4998;51.024;13.828;2023-04-04T12:46:56;9.50;42.00
9919;DHT22;4998;51.024;13.828;2023-04-04T12:49:27;9.50;42.20
9919;DHT22;4998;51.024;13.828;2023-04-04T12:51:56;9.60;42.20
9919;DHT22;4998;51.024;13.828;2023-04-04T12:54:27;9.60;42.00
9919;DHT22;4998;51.024;13.828;2023-04-04T12:56:56;9.60;41.50
9919;DHT22;4998;51.024;13.828;2023-04-04T12:59:27;9.60;41.80
9919;DHT22;4998;51.024;13.828;2023-04-04T13:01:55;9.70;41.70
9919;DHT22;4998;51.024;13.828;2023-04-04T13:04:22;9.70;41.70
9919;DHT22;4998;51.024;13.828;2023-04-04T13:06:49;9.70;41.80
9919;DHT22;4998;51.024;13.828;2023-04-04T13:09:18;9.70;42.10
9919;DHT22;4998;51.024;13.828;2023-04-04T13:12:07;9.70;42.20
9919;DHT22;4998;51.024;13.828;2023-04-04T13:14:57;9.80;42.00
9919;DHT22;4998;51.024;13.828;2023-04-04T13:17:24;9.90;42.00
9919;DHT22;4998;51.024;13.828;2023-04-04T13:19:52;9.90;41.90
9919;DHT22;4998;51.024;13.828;2023-04-04T13:22:19;9.90;41.90
9919;DHT22;4998;51.024;13.828;2023-04-04T13:24:46;9.90;41.80
9919;DHT22;4998;51.024;13.828;2023-04-04T13:27:14;10.00;40.90
9919;DHT22;4998;51.024;13.828;2023-04-04T13:29:41;10.00;40.70
9919;DHT22;4998;51.024;13.828;2023-04-04T13:32:08;10.00;40.80
9919;DHT22;4998;51.024;13.828;2023-04-04T13:34:35;10.00;40.70
9919;DHT22;4998;51.024;13.828;2023-04-04T13:37:02;10.00;40.60
9919;DHT22;4998;51.024;13.828;2023-04-04T13:39:29;10.00;40.00
9919;DHT22;4998;51.024;13.828;2023-04-04T13:41:56;10.00;40.20
9919;DHT22;4998;51.024;13.828;2023-04-04T13:44:25;10.10;40.50
9919;DHT22;4998;51.024;13.828;2023-04-04T13:46:52;10.10;40.20
9919;DHT22;4998;51.024;13.828;2023-04-04T13:49:19;10.10;40.60
9919;DHT22;4998;51.024;13.828;2023-04-04T13:51:46;10.20;40.80
9919;DHT22;4998;51.024;13.828;2023-04-04T13:54:13;10.20;40.50
9919;DHT22;4998;51.024;13.828;2023-04-04T13:56:40;10.30;40.60
9919;DHT22;4998;51.024;13.828;2023-04-04T13:59:07;10.30;40.50
9919;DHT22;4998;51.024;13.828;2023-04-04T14:01:36;10.40;40.50
9919;DHT22;4998;51.024;13.828;2023-04-04T14:04:04;10.40;40.20
9919;DHT22;4998;51.024;13.828;2023-04-04T14:06:31;10.50;40.40
9919;DHT22;4998;51.024;13.828;2023-04-04T14:08:58;10.50;39.80
9919;DHT22;4998;51.024;13.828;2023-04-04T14:11:25;10.50;39.60
9919;DHT22;4998;51.024;13.828;2023-04-04T14:13:55;10.40;39.40
9919;DHT22;4998;51.024;13.828;2023-04-04T14:16:22;10.40;39.30
9919;DHT22;4998;51.024;13.828;2023-04-04T14:18:50;10.30;39.00
9919;DHT22;4998;51.024;13.828;2023-04-04T14:21:18;10.30;38.50
9919;DHT22;4998;51.024;13.828;2023-04-04T14:23:45;10.20;38.70
9919;DHT22;4998;51.024;13.828;2023-04-04T14:26:12;10.20;39.10
9919;DHT22;4998;51.024;13.828;2023-04-04T14:28:39;10.20;39.50
9919;DHT22;4998;51.024;13.828;2023-04-04T14:31:06;10.20;39.20
9919;DHT22;4998;51.024;13.828;2023-04-04T14:33:33;10.20;39.10
9919;DHT22;4998;51.024;13.828;2023-04-04T14:36:02;10.20;38.80
9919;DHT22;4998;51.024;13.828;2023-04-04T14:38:29;10.20;38.80
9919;DHT22;4998;51.024;13.828;2023-04-04T14:40:57;10.20;38.70
9919;DHT22;4998;51.024;13.828;2023-04-04T14:43:24;10.20;38.90
9919;DHT22;4998;51.024;13.828;2023-04-04T14:45:52;10.20;38.80
9919;DHT22;4998;51.024;13.828;2023-04-04T14:48:19;10.20;38.90
9919;DHT22;4998;51.024;13.828;2023-04-04T14:50:46;10.20;39.00
9919;DHT22;4998;51.024;13.828;2023-04-04T14:53:14;10.20;38.80
9919;DHT22;4998;51.024;13.828;2023-04-04T14:55:41;10.20;38.50
9919;DHT22;4998;51.024;13.828;2023-04-04T14:58:08;10.20;38.70
9919;DHT22;4998;51.024;13.828;2023-04-04T15:00:35;10.30;38.80
9919;DHT22;4998;51.024;13.828;2023-04-04T15:03:02;10.30;38.80
9919;DHT22;4998;51.024;13.828;2023-04-04T15:05:30;10.40;38.60
9919;DHT22;4998;51.024;13.828;2023-04-04T15:07:58;10.40;38.60
9919;DHT22;4998;51.024;13.828;2023-04-04T15:10:26;10.40;38.30
9919;DHT22;4998;51.024;13.828;2023-04-04T15:12:53;10.40;38.20
9919;DHT22;4998;51.024;13.828;2023-04-04T15:15:20;10.40;38.40
9919;DHT22;4998;51.024;13.828;2023-04-04T15:17:47;10.40;38.40
9919;DHT22;4998;51.024;13.828;2023-04-04T15:20:15;10.30;38.40
9919;DHT22;4998;51.024;13.828;2023-04-04T15:22:42;10.30;38.50
9919;DHT22;4998;51.024;13.828;2023-04-04T15:25:09;10.30;38.60
9919;DHT22;4998;51.024;13.828;2023-04-04T15:27:37;10.40;38.40
9919;DHT22;4998;51.024;13.828;2023-04-04T15:30:05;10.40;38.40
9919;DHT22;4998;51.024;13.828;2023-04-04T15:32:33;10.40;38.50
9919;DHT22;4998;51.024;13.828;2023-04-04T15:35:00;10.40;38.40
9919;DHT22;4998;51.024;13.828;2023-04-04T15:37:29;10.50;38.40
9919;DHT22;4998;51.024;13.828;2023-04-04T15:39:56;10.50;38.30
9919;DHT22;4998;51.024;13.828;2023-04-04T15:42:24;10.50;38.10
9919;DHT22;4998;51.024;13.828;2023-04-04T15:44:54;10.50;38.00
9919;DHT22;4998;51.024;13.828;2023-04-04T15:47:21;10.50;38.00
9919;DHT22;4998;51.024;13.828;2023-04-04T15:49:48;10.50;38.00
9919;DHT22;4998;51.024;13.828;2023-04-04T15:52:15;10.40;38.00
9919;DHT22;4998;51.024;13.828;2023-04-04T15:54:42;10.40;38.10
9919;DHT22;4998;51.024;13.828;2023-04-04T15:57:09;10.40;38.00
9919;DHT22;4998;51.024;13.828;2023-04-04T15:59:36;10.40;37.80
9919;DHT22;4998;51.024;13.828;2023-04-04T16:02:05;10.30;37.70
9919;DHT22;4998;51.024;13.828;2023-04-04T16:04:32;10.30;37.70
9919;DHT22;4998;51.024;13.828;2023-04-04T16:06:59;10.20;37.90
9919;DHT22;4998;51.024;13.828;2023-04-04T16:09:26;10.20;38.10